createdAt,value
2022-12-15T00:02:27.371Z,28.73
2022-12-15T00:05:12.725Z,27.55
2022-12-15T00:07:58.317Z,28.85
2022-12-15T00:10:43.988Z,27.48
2022-12-15T00:13:32.129Z,27.38
2022-12-15T00:16:17.923Z,27.05
2022-12-15T00:19:03.489Z,27.23
2022-12-15T00:21:49.161Z,26.83
2022-12-15T00:24:35.081Z,26.65
2022-12-15T00:27:20.533Z,27.63
2022-12-15T00:30:07.207Z,25.90
2022-12-15T00:32:53.130Z,26.60
2022-12-15T00:35:38.563Z,27.83
2022-12-15T00:38:27.140Z,26.42
2022-12-15T00:40:58.982Z,25.27
2022-12-15T00:43:28.006Z,26.42
2022-12-15T00:46:15.111Z,27.80
2022-12-15T00:48:44.002Z,26.88
2022-12-15T00:51:11.684Z,27.98
2022-12-15T00:53:58.183Z,28.63
2022-12-15T00:56:45.007Z,27.17
2022-12-15T00:59:30.990Z,26.58
2022-12-15T01:02:18.440Z,27.38
2022-12-15T01:05:03.972Z,26.40
2022-12-15T01:07:49.607Z,26.67
2022-12-15T01:10:36.780Z,25.75
2022-12-15T01:13:23.246Z,26.08
2022-12-15T01:16:08.967Z,24.95
2022-12-15T01:18:56.011Z,25.58
2022-12-15T01:21:25.548Z,26.88
2022-12-15T01:23:54.087Z,27.58
2022-12-15T01:26:22.171Z,29.08
2022-12-15T01:28:50.326Z,28.50
2022-12-15T01:31:18.267Z,27.35
2022-12-15T01:33:47.597Z,28.05
2022-12-15T01:36:15.692Z,26.95
2022-12-15T01:38:45.096Z,27.70
2022-12-15T01:41:15.133Z,27.65
2022-12-15T01:43:43.024Z,27.50
2022-12-15T01:46:12.844Z,28.92
2022-12-15T01:48:44.078Z,28.08
2022-12-15T01:51:21.044Z,29.40
2022-12-15T01:53:54.487Z,28.50
2022-12-15T01:56:24.086Z,28.48
2022-12-15T01:58:55.281Z,28.13
2022-12-15T02:01:23.403Z,28.70
2022-12-15T02:03:52.135Z,28.67
2022-12-15T02:06:22.726Z,29.67
2022-12-15T02:08:54.890Z,31.77
2022-12-15T02:11:42.790Z,32.20
2022-12-15T02:14:12.383Z,33.08
2022-12-15T02:16:55.600Z,30.70
2022-12-15T02:19:53.530Z,30.23
2022-12-15T02:22:33.142Z,31.88
2022-12-15T02:25:29.936Z,30.45
2022-12-15T02:28:03.107Z,32.00
2022-12-15T02:30:45.971Z,30.83
2022-12-15T02:33:22.327Z,31.02
2022-12-15T02:35:58.612Z,31.38
2022-12-15T02:38:31.395Z,30.58
2022-12-15T02:41:00.806Z,30.90
2022-12-15T02:43:30.853Z,30.50
2022-12-15T02:46:16.742Z,31.30
2022-12-15T02:48:56.312Z,30.05
2022-12-15T02:51:36.810Z,31.20
2022-12-15T02:54:36.717Z,31.88
2022-12-15T02:57:11.262Z,31.25
2022-12-15T02:59:44.100Z,31.08
2022-12-15T03:02:14.826Z,31.23
2022-12-15T03:04:45.677Z,30.27
2022-12-15T03:07:15.593Z,31.27
2022-12-15T03:09:43.610Z,31.50
2022-12-15T03:12:11.863Z,31.23
2022-12-15T03:14:39.799Z,29.92
2022-12-15T03:17:07.894Z,28.58
2022-12-15T03:19:37.285Z,30.52
2022-12-15T03:22:05.334Z,29.30
2022-12-15T03:24:33.551Z,30.30
2022-12-15T03:27:01.558Z,31.30
2022-12-15T03:29:29.762Z,30.48
2022-12-15T03:31:57.813Z,30.98
2022-12-15T03:34:26.006Z,29.63
2022-12-15T03:36:55.323Z,29.92
2022-12-15T03:39:23.277Z,29.65
2022-12-15T03:41:51.231Z,30.10
2022-12-15T03:44:19.190Z,30.30
2022-12-15T03:46:47.483Z,30.45
2022-12-15T03:49:15.449Z,30.52
2022-12-15T03:51:43.556Z,32.88
2022-12-15T03:54:13.323Z,30.33
2022-12-15T03:56:41.484Z,30.27
2022-12-15T03:59:09.459Z,30.77
2022-12-15T04:01:38.201Z,30.80
2022-12-15T04:04:06.716Z,28.45
2022-12-15T04:06:34.644Z,30.08
2022-12-15T04:09:02.868Z,31.50
2022-12-15T04:11:32.247Z,30.10
2022-12-15T04:14:00.151Z,30.85
2022-12-15T04:16:28.094Z,31.13
2022-12-15T04:19:10.030Z,31.50
2022-12-15T04:21:40.291Z,30.77
2022-12-15T04:24:25.844Z,32.55
2022-12-15T04:27:12.411Z,32.97
2022-12-15T04:29:57.941Z,31.65
2022-12-15T04:32:43.370Z,33.83
2022-12-15T04:35:30.221Z,31.67
2022-12-15T04:38:15.761Z,33.22
2022-12-15T04:41:01.281Z,31.77
2022-12-15T04:43:48.201Z,32.88
2022-12-15T04:46:33.681Z,31.02
2022-12-15T04:49:19.070Z,31.77
2022-12-15T04:52:04.397Z,31.27
2022-12-15T04:54:50.128Z,32.35
2022-12-15T04:57:35.627Z,33.22
2022-12-15T05:00:23.354Z,30.52
2022-12-15T05:03:11.322Z,31.88
2022-12-15T05:06:00.424Z,32.20
2022-12-15T05:08:45.811Z,30.55
2022-12-15T05:11:35.419Z,29.85
2022-12-15T05:14:20.858Z,31.73
2022-12-15T05:17:07.813Z,31.33
2022-12-15T05:19:53.245Z,34.20
2022-12-15T05:22:38.650Z,33.75
2022-12-15T05:25:24.444Z,33.80
2022-12-15T05:28:10.091Z,32.80
2022-12-15T05:30:55.742Z,31.70
2022-12-15T05:33:25.088Z,32.83
2022-12-15T05:35:52.953Z,32.30
2022-12-15T05:38:20.849Z,30.10
2022-12-15T05:40:48.837Z,31.05
2022-12-15T05:43:20.463Z,30.77
2022-12-15T05:45:52.704Z,31.80
2022-12-15T05:48:20.675Z,33.75
2022-12-15T05:50:50.506Z,35.33
2022-12-15T05:53:18.400Z,30.33
2022-12-15T05:55:46.354Z,31.98
2022-12-15T05:58:14.429Z,34.03
2022-12-15T06:00:42.373Z,33.88
2022-12-15T06:03:10.302Z,33.92
2022-12-15T06:05:38.501Z,35.17
2022-12-15T06:08:07.981Z,35.40
2022-12-15T06:10:35.997Z,34.28
2022-12-15T06:13:04.258Z,34.72
2022-12-15T06:15:32.161Z,34.20
2022-12-15T06:18:00.043Z,33.15
2022-12-15T06:20:27.949Z,34.78
2022-12-15T06:22:56.098Z,35.47
2022-12-15T06:25:25.430Z,33.58
2022-12-15T06:27:58.336Z,32.85
2022-12-15T06:30:29.473Z,34.05
2022-12-15T06:32:57.632Z,33.83
2022-12-15T06:35:25.539Z,35.45
2022-12-15T06:37:53.504Z,37.00
2022-12-15T06:40:21.431Z,39.55
2022-12-15T06:42:50.688Z,35.90
2022-12-15T06:45:18.529Z,34.55
2022-12-15T06:47:46.399Z,35.47
2022-12-15T06:50:14.505Z,34.60
2022-12-15T06:52:42.616Z,34.58
2022-12-15T06:55:11.066Z,34.63
2022-12-15T06:57:38.996Z,32.80
2022-12-15T07:00:10.078Z,33.97
2022-12-15T07:02:38.211Z,34.25
2022-12-15T07:05:06.809Z,34.63
2022-12-15T07:07:34.930Z,34.05
2022-12-15T07:10:02.872Z,34.22
2022-12-15T07:12:31.094Z,32.15
2022-12-15T07:14:59.140Z,33.72
2022-12-15T07:17:28.643Z,34.40
2022-12-15T07:19:57.023Z,34.05
2022-12-15T07:22:25.202Z,36.42
2022-12-15T07:24:53.181Z,34.30
2022-12-15T07:27:21.256Z,34.90
2022-12-15T07:29:49.128Z,35.10
2022-12-15T07:32:17.216Z,36.13
2022-12-15T07:34:46.854Z,37.38
2022-12-15T07:37:16.847Z,36.63
2022-12-15T07:39:44.856Z,36.67
2022-12-15T07:42:12.796Z,37.40
2022-12-15T07:44:40.878Z,38.00
2022-12-15T07:47:08.884Z,36.70
2022-12-15T07:49:36.843Z,37.70
2022-12-15T07:52:06.290Z,35.80
2022-12-15T07:54:34.534Z,37.10
2022-12-15T07:57:02.988Z,34.78
2022-12-15T07:59:30.964Z,36.90
2022-12-15T08:02:00.673Z,37.83
2022-12-15T08:04:28.959Z,34.67
2022-12-15T08:06:57.483Z,36.20
2022-12-15T08:09:27.041Z,34.75
2022-12-15T08:11:55.038Z,41.65
2022-12-15T08:14:23.530Z,34.97
2022-12-15T08:16:52.053Z,32.33
2022-12-15T08:19:20.035Z,31.48
2022-12-15T08:21:48.690Z,31.25
2022-12-15T08:24:19.250Z,30.60
2022-12-15T08:26:50.190Z,29.90
2022-12-15T08:32:07.451Z,32.05
2022-12-15T08:34:35.824Z,32.78
2022-12-15T08:37:03.793Z,33.88
2022-12-15T08:39:31.884Z,36.20
2022-12-15T08:42:01.424Z,34.42
2022-12-15T08:44:29.580Z,34.90
2022-12-15T08:46:57.630Z,34.78
2022-12-15T08:49:25.771Z,35.08
2022-12-15T08:51:53.784Z,56.88
2022-12-15T08:54:22.299Z,33.72
2022-12-15T08:56:50.327Z,33.20
2022-12-15T08:59:20.249Z,33.10
2022-12-15T09:01:48.607Z,57.40
2022-12-15T09:04:16.883Z,47.92
2022-12-15T09:06:50.589Z,38.60
2022-12-15T09:09:18.962Z,34.35
2022-12-15T09:11:46.967Z,37.10
2022-12-15T09:14:15.749Z,34.42
2022-12-15T09:16:50.645Z,39.90
2022-12-15T09:19:19.135Z,33.75
2022-12-15T09:21:48.170Z,32.25
2022-12-15T09:24:25.872Z,32.70
2022-12-15T09:27:00.497Z,30.60
2022-12-15T09:29:28.756Z,32.33
2022-12-15T09:31:58.145Z,34.13
2022-12-15T09:34:26.120Z,32.95
2022-12-15T09:36:54.206Z,32.35
2022-12-15T09:39:22.188Z,32.45
2022-12-15T09:41:54.980Z,34.55
2022-12-15T09:44:25.591Z,38.30
2022-12-15T09:47:07.972Z,34.88
2022-12-15T09:49:49.221Z,38.92
2022-12-15T09:52:20.094Z,37.55
2022-12-15T09:54:48.168Z,33.30
2022-12-15T09:57:24.736Z,34.95
2022-12-15T10:00:07.374Z,32.42
2022-12-15T10:03:01.912Z,35.03
2022-12-15T10:06:06.912Z,33.58
2022-12-15T10:08:34.278Z,41.15
2022-12-15T10:11:05.498Z,56.28
2022-12-15T10:13:41.721Z,40.35
2022-12-15T10:16:20.121Z,44.53
2022-12-15T10:19:01.397Z,40.97
2022-12-15T10:21:32.008Z,35.65
2022-12-15T10:24:09.080Z,35.05
2022-12-15T10:26:37.317Z,43.47
2022-12-15T10:29:19.583Z,32.78
2022-12-15T10:31:53.337Z,33.55
2022-12-15T10:34:28.270Z,33.25
2022-12-15T10:36:57.864Z,33.97
2022-12-15T10:39:39.124Z,34.30
2022-12-15T10:42:16.305Z,36.40
2022-12-15T10:44:50.609Z,42.45
2022-12-15T10:47:21.840Z,38.08
2022-12-15T10:49:51.497Z,35.90
2022-12-15T10:52:27.281Z,43.25
2022-12-15T10:54:56.236Z,42.13
2022-12-15T10:57:28.768Z,36.33
2022-12-15T11:00:00.954Z,38.17
2022-12-15T11:02:34.259Z,36.88
2022-12-15T11:05:06.870Z,35.30
2022-12-15T11:07:38.800Z,38.15
2022-12-15T11:10:17.039Z,37.40
2022-12-15T11:12:58.296Z,37.88
2022-12-15T11:15:47.152Z,36.70
2022-12-15T11:18:36.372Z,35.88
2022-12-15T11:21:12.599Z,36.33
2022-12-15T11:23:50.333Z,36.88
2022-12-15T11:26:27.514Z,36.22
2022-12-15T11:29:00.318Z,36.08
2022-12-15T11:31:35.166Z,38.17
2022-12-15T11:34:03.237Z,35.95
2022-12-15T11:36:54.639Z,35.47
2022-12-15T11:39:35.544Z,34.38
2022-12-15T11:42:13.288Z,35.38
2022-12-15T11:44:52.595Z,36.85
2022-12-15T11:47:31.579Z,38.78
2022-12-15T11:50:15.955Z,36.40
2022-12-15T11:52:57.842Z,38.42
2022-12-15T11:55:41.170Z,37.25
2022-12-15T11:58:39.297Z,37.30
2022-12-15T12:01:15.476Z,37.03
2022-12-15T12:03:55.688Z,36.50
2022-12-15T12:06:33.689Z,37.60
2022-12-15T12:09:17.501Z,39.03
2022-12-15T12:11:50.728Z,43.10
2022-12-15T12:14:32.891Z,42.88
2022-12-15T12:17:06.481Z,42.80
2022-12-15T12:19:42.456Z,39.03
2022-12-15T12:22:21.009Z,43.80
2022-12-15T12:24:56.607Z,37.30
2022-12-15T12:27:30.109Z,38.30
2022-12-15T12:30:03.193Z,36.25
2022-12-15T12:32:40.366Z,36.30
2022-12-15T12:35:30.488Z,36.45
2022-12-15T12:38:04.733Z,36.83
2022-12-15T12:40:56.503Z,35.33
2022-12-15T12:43:34.088Z,37.70
2022-12-15T12:46:07.840Z,37.72
2022-12-15T12:48:39.987Z,36.65
2022-12-15T12:51:18.785Z,36.63
2022-12-15T12:53:46.989Z,35.33
2022-12-15T12:56:50.603Z,34.33
2022-12-15T12:59:51.859Z,32.17
2022-12-15T13:02:45.125Z,34.60
2022-12-15T13:05:31.871Z,33.28
2022-12-15T13:08:19.753Z,33.30
2022-12-15T13:10:50.837Z,33.70
2022-12-15T13:13:41.989Z,33.25
2022-12-15T13:16:18.837Z,30.88
2022-12-15T13:19:03.412Z,29.70
2022-12-15T13:21:55.219Z,28.33
2022-12-15T13:24:40.135Z,27.23
2022-12-15T13:27:15.736Z,28.00
2022-12-15T13:30:01.628Z,28.92
2022-12-15T13:32:32.687Z,28.20
2022-12-15T13:35:20.112Z,28.52
2022-12-15T13:37:53.992Z,27.92
2022-12-15T13:40:33.870Z,26.77
2022-12-15T13:43:11.373Z,26.98
2022-12-15T13:45:57.006Z,29.17
2022-12-15T13:48:38.458Z,29.25
2022-12-15T13:51:23.013Z,29.30
2022-12-15T13:53:57.253Z,29.23
2022-12-15T13:56:42.873Z,29.40
2022-12-15T13:59:19.892Z,26.55
2022-12-15T14:01:55.986Z,27.02
2022-12-15T14:04:24.253Z,28.27
2022-12-15T14:06:55.220Z,28.38
2022-12-15T14:09:28.715Z,28.95
2022-12-15T14:11:58.083Z,27.77
2022-12-15T14:14:30.093Z,27.42
2022-12-15T14:17:02.617Z,27.63
2022-12-15T14:19:51.176Z,29.30
2022-12-15T14:22:28.687Z,27.60
2022-12-15T14:25:19.591Z,26.48
2022-12-15T14:27:50.761Z,27.80
2022-12-15T14:30:25.489Z,30.38
2022-12-15T14:33:00.807Z,28.80
2022-12-15T14:35:32.640Z,28.90
2022-12-15T14:38:03.816Z,28.05
2022-12-15T14:40:32.908Z,28.02
2022-12-15T14:43:01.254Z,29.08
2022-12-15T14:45:33.497Z,28.75
2022-12-15T14:48:39.993Z,30.55
2022-12-15T14:51:01.698Z,27.75
2022-12-15T14:53:34.275Z,29.75
2022-12-15T14:59:22.719Z,30.38
2022-12-15T15:03:09.675Z,30.35
2022-12-15T15:04:43.236Z,30.20
2022-12-15T15:07:19.036Z,29.70
2022-12-15T15:09:47.786Z,28.83
2022-12-15T15:12:18.155Z,30.02
2022-12-15T15:14:49.202Z,37.88
2022-12-15T15:17:31.705Z,29.38
2022-12-15T15:20:03.614Z,30.02
2022-12-15T15:22:37.134Z,31.23
2022-12-15T15:25:26.312Z,30.95
2022-12-15T15:28:02.739Z,31.77
2022-12-15T15:30:41.001Z,30.33
2022-12-15T15:33:10.552Z,30.98
2022-12-15T15:35:40.609Z,30.75
2022-12-15T15:38:18.574Z,31.05
2022-12-15T15:40:51.181Z,31.02
2022-12-15T15:43:19.625Z,31.15
2022-12-15T15:45:48.281Z,31.92
2022-12-15T15:48:22.198Z,31.75
2022-12-15T15:50:51.658Z,35.83
2022-12-15T15:53:23.481Z,32.53
2022-12-15T15:55:53.682Z,38.15
2022-12-15T15:58:21.854Z,34.00
2022-12-15T16:00:49.994Z,35.78
2022-12-15T16:03:18.183Z,31.75
2022-12-15T16:05:46.681Z,31.50
2022-12-15T16:08:19.045Z,31.88
2022-12-15T16:10:49.404Z,31.45
2022-12-15T16:13:25.506Z,30.70
2022-12-15T16:15:54.455Z,31.20
2022-12-15T16:18:22.966Z,35.10
2022-12-15T16:20:52.707Z,35.05
2022-12-15T16:23:24.052Z,35.58
2022-12-15T16:25:54.232Z,74.03
2022-12-15T16:28:23.626Z,39.40
2022-12-15T16:30:52.312Z,34.40
2022-12-15T16:33:20.667Z,32.83
2022-12-15T16:35:50.381Z,33.35
2022-12-15T16:38:25.274Z,32.58
2022-12-15T16:40:55.513Z,33.10
2022-12-15T16:43:25.055Z,31.40
2022-12-15T16:45:55.892Z,32.67
2022-12-15T16:48:23.921Z,34.03
2022-12-15T16:50:53.498Z,33.33
2022-12-15T16:53:28.502Z,31.77
2022-12-15T16:55:58.311Z,29.27
2022-12-15T16:58:27.918Z,33.72
2022-12-15T17:00:56.155Z,48.63
2022-12-15T17:03:26.615Z,38.33
2022-12-15T17:05:57.211Z,34.92
2022-12-15T17:08:30.514Z,40.35
2022-12-15T17:10:58.801Z,43.30
2022-12-15T17:13:37.664Z,36.58
2022-12-15T17:16:14.776Z,36.20
2022-12-15T17:18:44.599Z,40.47
2022-12-15T17:21:16.028Z,31.15
2022-12-15T17:23:46.741Z,36.13
2022-12-15T17:26:28.143Z,33.40
2022-12-15T17:28:59.727Z,35.00
2022-12-15T17:31:34.435Z,32.17
2022-12-15T17:34:09.538Z,30.50
2022-12-15T17:36:37.849Z,29.55
2022-12-15T17:39:10.715Z,35.20
2022-12-15T17:44:34.185Z,31.08
2022-12-15T17:47:04.299Z,29.85
2022-12-15T17:49:36.240Z,26.75
2022-12-15T17:52:09.136Z,27.00
2022-12-15T17:54:38.641Z,27.75
2022-12-15T17:57:10.166Z,28.55
2022-12-15T17:59:38.069Z,28.70
2022-12-15T18:02:06.329Z,28.77
2022-12-15T18:04:35.339Z,28.30
2022-12-15T18:07:03.316Z,28.88
2022-12-15T18:09:31.553Z,29.02
2022-12-15T18:12:00.907Z,26.15
2022-12-15T18:14:29.420Z,26.92
2022-12-15T18:16:57.402Z,26.67
2022-12-15T18:19:27.984Z,27.13
2022-12-15T18:21:59.620Z,26.35
2022-12-15T18:24:28.085Z,26.48
2022-12-15T18:26:56.016Z,25.75
2022-12-15T18:29:25.428Z,26.77
2022-12-15T18:31:53.552Z,25.83
2022-12-15T18:34:22.884Z,32.03
2022-12-15T18:36:51.497Z,29.75
2022-12-15T18:39:23.207Z,29.27
2022-12-15T18:41:52.387Z,28.52
2022-12-15T18:44:23.784Z,28.42
2022-12-15T18:46:55.544Z,29.17
2022-12-15T18:49:23.887Z,28.90
2022-12-15T18:51:52.056Z,29.65
2022-12-15T18:54:22.439Z,33.95
2022-12-15T18:56:51.740Z,30.60
2022-12-15T18:59:20.372Z,34.60
2022-12-15T19:01:49.646Z,31.90
2022-12-15T19:04:19.115Z,31.75
2022-12-15T19:06:47.137Z,32.47
2022-12-15T19:09:17.410Z,31.05
2022-12-15T19:12:17.484Z,29.85
2022-12-15T19:14:46.944Z,31.98
2022-12-15T19:17:33.853Z,30.63
2022-12-15T19:20:21.972Z,28.50
2022-12-15T19:22:50.472Z,29.55
2022-12-15T19:25:25.745Z,33.42
2022-12-15T19:27:58.678Z,31.15
2022-12-15T19:30:28.591Z,41.33
2022-12-15T19:32:56.615Z,46.15
2022-12-15T19:35:27.264Z,35.17
2022-12-15T19:37:58.804Z,36.05
2022-12-15T19:40:30.319Z,33.05
2022-12-15T19:43:00.103Z,34.13
2022-12-15T19:45:29.699Z,33.47
2022-12-15T19:47:58.067Z,33.83
2022-12-15T19:50:30.215Z,37.10
2022-12-15T19:53:00.845Z,33.85
2022-12-15T19:55:32.679Z,36.17
2022-12-15T19:58:00.864Z,36.00
2022-12-15T20:00:29.156Z,36.22
2022-12-15T20:02:57.384Z,35.70
2022-12-15T20:05:27.760Z,35.78
2022-12-15T20:07:56.170Z,36.38
2022-12-15T20:10:32.107Z,35.40
2022-12-15T20:13:01.138Z,35.47
2022-12-15T20:15:29.209Z,32.00
2022-12-15T20:17:58.706Z,33.20
2022-12-15T20:20:29.922Z,31.98
2022-12-15T20:23:00.739Z,34.00
2022-12-15T20:25:31.188Z,30.92
2022-12-15T20:28:00.699Z,34.00
2022-12-15T20:30:32.971Z,30.42
2022-12-15T20:33:00.969Z,32.40
2022-12-15T20:35:33.221Z,30.88
2022-12-15T20:38:02.205Z,30.73
2022-12-15T20:40:31.499Z,30.15
2022-12-15T20:42:59.430Z,31.13
2022-12-15T20:45:28.086Z,30.10
2022-12-15T20:47:57.467Z,29.95
2022-12-15T20:50:33.840Z,29.10
2022-12-15T20:53:02.069Z,30.70
2022-12-15T20:55:30.313Z,30.27
2022-12-15T20:57:58.303Z,30.17
2022-12-15T21:00:26.570Z,30.42
2022-12-15T21:02:55.011Z,32.75
2022-12-15T21:05:25.919Z,31.77
2022-12-15T21:07:55.238Z,31.13
2022-12-15T21:10:23.180Z,31.90
2022-12-15T21:12:51.773Z,30.05
2022-12-15T21:15:22.769Z,31.02
2022-12-15T21:18:11.027Z,31.05
2022-12-15T21:20:42.125Z,31.23
2022-12-15T21:23:21.948Z,30.35
2022-12-15T21:25:50.510Z,33.00
2022-12-15T21:28:18.767Z,30.98
2022-12-15T21:30:46.802Z,30.40
2022-12-15T21:33:15.281Z,31.38
2022-12-15T21:35:46.004Z,32.55
2022-12-15T21:38:33.021Z,33.63
2022-12-15T21:41:03.869Z,34.20
2022-12-15T21:43:34.535Z,35.00
2022-12-15T21:46:04.223Z,36.30
2022-12-15T21:48:50.028Z,34.50
2022-12-15T21:51:20.857Z,33.38
2022-12-15T21:53:50.624Z,34.28
2022-12-15T21:56:20.103Z,34.45
2022-12-15T21:58:51.342Z,33.55
2022-12-15T22:01:23.259Z,33.17
2022-12-15T22:03:53.687Z,32.72
2022-12-15T22:06:25.455Z,33.63
2022-12-15T22:08:55.819Z,34.25
2022-12-15T22:11:25.681Z,34.40
2022-12-15T22:13:55.287Z,33.75
2022-12-15T22:16:24.095Z,35.15
2022-12-15T22:18:55.177Z,34.33
2022-12-15T22:21:23.096Z,36.05
2022-12-15T22:23:51.563Z,35.80
2022-12-15T22:26:23.680Z,34.58
2022-12-15T22:28:52.356Z,34.78
2022-12-15T22:31:22.866Z,33.13
2022-12-15T22:33:53.641Z,34.45
2022-12-15T22:36:23.143Z,36.85
2022-12-15T22:38:51.075Z,36.17
2022-12-15T22:41:22.784Z,35.30
2022-12-15T22:43:53.055Z,35.65
2022-12-15T22:46:25.434Z,37.55
2022-12-15T22:48:55.111Z,37.60
2022-12-15T22:51:23.252Z,36.53
2022-12-15T22:53:51.744Z,36.42
2022-12-15T22:56:27.444Z,36.03
2022-12-15T22:58:59.868Z,36.22
2022-12-15T23:01:28.926Z,35.35
2022-12-15T23:03:57.317Z,36.95
2022-12-15T23:06:27.315Z,38.50
2022-12-15T23:08:56.237Z,38.65
2022-12-15T23:11:36.893Z,38.80
2022-12-15T23:14:05.652Z,37.75
2022-12-15T23:16:33.465Z,38.33
2022-12-15T23:19:03.155Z,36.92
2022-12-15T23:21:31.368Z,37.63
2022-12-15T23:23:59.221Z,38.47
2022-12-15T23:26:29.225Z,38.80
2022-12-15T23:28:57.143Z,38.22
2022-12-15T23:31:25.262Z,38.25
2022-12-15T23:33:54.058Z,37.95
2022-12-15T23:36:21.998Z,36.15
2022-12-15T23:38:50.291Z,37.28
2022-12-15T23:41:19.866Z,39.08
2022-12-15T23:43:49.523Z,39.17
2022-12-15T23:46:18.539Z,37.45
2022-12-15T23:48:46.549Z,39.33
2022-12-15T23:51:16.776Z,37.83
2022-12-15T23:53:46.089Z,39.92
2022-12-15T23:56:15.856Z,38.47
2022-12-15T23:58:45.941Z,36.83
